Matheson, Canada
Current Conditions -  °F | °C
As of 6:00 AM on Thursday 27 Nov 2014 (Local Time) from CYTS Reporting Station
Light Snow Light Snow  
Wind Chill: -6°   Ceiling: 2700
Heat Index:   Visibility: 6mi
Dew Point:   Wind: 6mph
Humidity: 85%   Direction: 350°N
Pressure: 30.15"   Gusts: NA
Location:  48.53°N, 80.47°W
Report Text: CYTS 271100Z 35005KT 6SM -SN OVC027 M15/M17 A3015 RMK SC8 SLP238
Loading
Personal Weather Stations






























Interactive Weather Map New forecast layout! Learn more

10-Day Weather Forecast

Advertisements
Track Severe Weather on mobile